KLZZ

Lampasas Airport

Lampasas, Texas, USA
METAR KLZZ 231415Z AUTO 03003KT 1 3/4SM BR OVC002 06/05 A3017 RMK AO2 T00550053
Observed Flight Rules
Feb-23 @ 14:15 UTC (18 minutes ago) Instrument Flight Rules
Wind Visibility Clouds Conditions
30° at 3 knots 1 3/4 miles
  • Overcast at 200' AGL
  • Mist
Temperatures Readings
Current 6°C / 43°F
Dewpoint 5°C / 41°F
Humidity 93%
Altimeter 30.17" Hg
Pressure 1022 hPa
Elevation 371
METAR KLZZ 231415Z AUTO 03003KT 1 3/4SM BR OVC002 06/05 A3017 RMK AO2 T00550053
Observed Flight Rules
Feb-23 @ 14:15 UTC
(18 minutes ago)
LIFR
Wind Visibility
30° at 3 knots 1 3/4 miles
Clouds
  • Overcast at 200' AGL
Conditions
  • Mist
Temperature Dewpoint
6°C / 43°F 5°C / 41°F
Humidity Altimeter Pressure
93% 30.17" Hg 1022 hPa